Time;durP1;ratioP1;P1;durP2;ratioP2;P2;SDS_P1;SDS_P2;PMS_P1;PMS_P2;Temp;Humidity;BMP_temperature;BMP_pressure;BME280_temperature;BME280_humidity;BME280_pressure;Samples;Min_cycle;Max_cycle;Signal;HPM_P1;HPM_P2
2021/08/13 00:00:24;;;;;;;12.00;10.37;;;19.40;99.90;;;;;;5056244;28;20543;-71
2021/08/13 00:02:50;;;;;;;11.20;10.00;;;19.30;99.90;;;;;;5056759;28;20624;-71
2021/08/13 00:05:16;;;;;;;10.00;9.10;;;19.10;99.90;;;;;;5056449;28;20600;-71
2021/08/13 00:07:41;;;;;;;11.20;9.40;;;19.10;99.90;;;;;;5056150;28;20166;-71
2021/08/13 00:10:07;;;;;;;13.20;9.77;;;19.10;99.90;;;;;;5057582;28;20269;-71
2021/08/13 00:12:33;;;;;;;10.67;9.60;;;19.20;99.90;;;;;;5056532;28;20186;-71
2021/08/13 00:14:59;;;;;;;11.20;9.60;;;19.20;99.90;;;;;;5058569;28;20458;-71
2021/08/13 00:17:26;;;;;;;12.53;10.27;;;19.30;99.90;;;;;;5061826;28;20191;-71
2021/08/13 00:19:52;;;;;;;12.17;9.90;;;19.30;99.90;;;;;;5061336;28;20443;-71
2021/08/13 00:22:18;;;;;;;11.37;10.20;;;19.30;99.90;;;;;;5061599;28;20925;-72
2021/08/13 00:24:44;;;;;;;12.40;10.30;;;19.30;99.90;;;;;;5059975;28;20405;-72
2021/08/13 00:27:10;;;;;;;13.90;10.87;;;19.30;99.90;;;;;;5068070;28;20192;-72
2021/08/13 00:29:35;;;;;;;11.20;9.30;;;19.30;99.90;;;;;;5084355;28;20450;-73
2021/08/13 00:32:01;;;;;;;11.30;10.10;;;19.30;99.90;;;;;;5048569;28;20178;-73
2021/08/13 00:34:27;;;;;;;10.57;9.53;;;19.40;99.90;;;;;;5063956;28;20198;-73
2021/08/13 00:36:52;;;;;;;12.53;11.20;;;19.30;99.90;;;;;;5047784;28;20182;-73
2021/08/13 00:39:18;;;;;;;12.47;10.80;;;19.20;99.90;;;;;;5067585;28;20419;-73
2021/08/13 00:41:44;;;;;;;12.80;11.00;;;19.00;99.90;;;;;;5067127;28;20209;-72
2021/08/13 00:44:09;;;;;;;10.83;9.83;;;18.90;99.90;;;;;;5050276;28;20447;-74
2021/08/13 00:46:35;;;;;;;11.40;10.20;;;19.00;99.90;;;;;;5066997;28;20202;-71
2021/08/13 00:49:00;;;;;;;11.90;10.23;;;19.00;99.90;;;;;;5067559;28;20182;-71
2021/08/13 00:51:26;;;;;;;11.07;10.00;;;19.10;99.90;;;;;;5066990;28;20209;-71
2021/08/13 00:53:52;;;;;;;11.37;10.17;;;19.10;99.90;;;;;;5066867;28;20285;-72
2021/08/13 00:56:19;;;;;;;11.10;10.00;;;19.10;99.90;;;;;;5066044;28;20422;-71
2021/08/13 00:58:44;;;;;;;11.23;10.13;;;19.10;99.90;;;;;;5065578;28;20166;-71
2021/08/13 01:01:11;;;;;;;13.27;10.30;;;19.10;99.90;;;;;;5067919;28;20432;-72
2021/08/13 01:03:38;;;;;;;12.87;10.27;;;19.10;99.90;;;;;;5066979;28;20230;-73
2021/08/13 01:06:05;;;;;;;12.07;10.97;;;19.10;99.90;;;;;;5067121;28;20409;-72
2021/08/13 01:08:31;;;;;;;12.23;11.00;;;19.10;99.90;;;;;;5067835;28;20412;-73
2021/08/13 01:11:19;;;;;;;11.87;9.80;;;19.00;99.90;;;;;;5071187;28;20825;-72
2021/08/13 01:13:55;;;;;;;11.93;10.90;;;19.00;99.90;;;;;;5062658;28;20419;-71
2021/08/13 01:16:22;;;;;;;12.03;10.73;;;19.00;99.90;;;;;;5060045;28;20186;-72
2021/08/13 01:19:22;;;;;;;11.13;10.07;;;19.00;99.90;;;;;;5056994;28;20385;-72
2021/08/13 01:22:01;;;;;;;10.40;9.30;;;19.00;99.90;;;;;;5001883;28;20459;-72
2021/08/13 01:24:29;;;;;;;11.50;10.40;;;19.00;99.90;;;;;;5055772;28;20424;-73
2021/08/13 01:27:01;;;;;;;11.70;10.50;;;19.00;99.90;;;;;;5073217;28;20416;-72
2021/08/13 01:29:31;;;;;;;10.97;9.97;;;19.00;99.90;;;;;;5076096;28;20412;-71
2021/08/13 01:32:12;;;;;;;12.50;11.10;;;19.00;99.90;;;;;;5075792;28;20438;-72
2021/08/13 01:34:44;;;;;;;12.47;11.17;;;18.90;99.90;;;;;;5075298;28;20400;-73
2021/08/13 01:37:10;;;;;;;12.50;11.30;;;18.90;99.90;;;;;;5073791;28;20507;-72
2021/08/13 01:39:37;;;;;;;11.20;10.07;;;18.90;99.90;;;;;;5074832;28;20876;-72
2021/08/13 01:42:04;;;;;;;12.85;11.40;;;18.90;99.90;;;;;;5074430;28;20411;-71
2021/08/13 01:44:32;;;;;;;12.83;11.60;;;18.90;99.90;;;;;;5074591;28;20185;-71
2021/08/13 01:46:59;;;;;;;11.87;10.80;;;18.90;99.90;;;;;;5073292;28;20776;-72
2021/08/13 01:49:27;;;;;;;10.20;9.30;;;19.00;99.90;;;;;;5075302;28;20861;-71
2021/08/13 01:51:54;;;;;;;11.40;10.03;;;19.00;99.90;;;;;;5075021;28;20416;-72
2021/08/13 01:54:24;;;;;;;11.13;10.13;;;19.00;99.90;;;;;;5074794;28;20526;-73
2021/08/13 01:56:51;;;;;;;11.83;10.70;;;19.00;99.90;;;;;;5083190;28;20420;-72
2021/08/13 01:59:17;;;;;;;11.30;10.10;;;19.00;99.90;;;;;;5079257;28;20419;-71
2021/08/13 02:01:43;;;;;;;10.83;9.73;;;19.00;99.90;;;;;;5075689;28;20897;-71
2021/08/13 02:04:09;;;;;;;11.27;10.10;;;19.00;99.90;;;;;;5073871;28;20201;-72
2021/08/13 02:06:35;;;;;;;11.73;10.40;;;19.00;99.90;;;;;;5076538;28;20400;-71
2021/08/13 02:09:03;;;;;;;11.50;10.40;;;19.00;99.90;;;;;;5058341;28;20507;-72
2021/08/13 02:11:30;;;;;;;12.00;10.85;;;19.00;99.90;;;;;;5053396;28;20427;-72
2021/08/13 02:13:56;;;;;;;12.30;11.10;;;19.00;99.90;;;;;;5054221;28;20190;-71
2021/08/13 02:16:26;;;;;;;11.90;10.67;;;18.90;99.90;;;;;;5054955;28;20848;-71
2021/08/13 02:19:04;;;;;;;11.43;10.33;;;18.90;99.90;;;;;;5054757;28;20163;-72
2021/08/13 02:21:31;;;;;;;14.50;10.57;;;18.90;99.90;;;;;;5036172;28;20421;-72
2021/08/13 02:23:57;;;;;;;12.50;11.10;;;18.90;99.90;;;;;;5054905;28;20520;-72
2021/08/13 02:26:22;;;;;;;10.80;9.70;;;18.90;99.90;;;;;;5037149;28;20492;-73
2021/08/13 02:28:48;;;;;;;12.63;10.60;;;18.90;99.90;;;;;;5054452;28;20181;-72
2021/08/13 02:31:14;;;;;;;12.40;10.70;;;18.80;99.90;;;;;;5054162;28;20201;-72
2021/08/13 02:33:40;;;;;;;12.73;11.30;;;18.70;99.90;;;;;;5053395;28;20428;-73
2021/08/13 02:36:09;;;;;;;11.73;10.63;;;18.70;99.90;;;;;;5052887;28;20404;-73
2021/08/13 02:38:58;;;;;;;10.80;9.80;;;18.70;99.90;;;;;;5055410;28;20178;-72
2021/08/13 02:41:26;;;;;;;12.30;11.10;;;18.80;99.90;;;;;;5052169;28;20763;-72
2021/08/13 02:43:58;;;;;;;11.37;10.37;;;18.80;99.90;;;;;;5055823;28;20211;-72
2021/08/13 02:46:28;;;;;;;12.07;10.93;;;18.70;99.90;;;;;;5054317;28;20408;-71
2021/08/13 02:48:57;;;;;;;11.30;9.63;;;18.70;99.90;;;;;;5054984;28;20420;-72
2021/08/13 02:51:27;;;;;;;12.20;11.00;;;18.80;99.90;;;;;;5053527;28;20433;-71
2021/08/13 02:53:54;;;;;;;12.87;11.57;;;18.70;99.90;;;;;;5053970;28;20427;-72
2021/08/13 02:56:20;;;;;;;12.93;11.47;;;18.60;99.90;;;;;;5054053;28;20462;-72
2021/08/13 02:58:52;;;;;;;11.47;10.37;;;18.60;99.90;;;;;;5054787;28;20901;-71
2021/08/13 03:01:23;;;;;;;11.07;9.97;;;18.60;99.90;;;;;;5053455;28;20174;-71
2021/08/13 03:03:50;;;;;;;12.87;11.07;;;18.60;99.90;;;;;;5053434;28;20435;-72
2021/08/13 03:06:18;;;;;;;13.40;12.00;;;18.60;99.90;;;;;;5052810;28;20763;-72
2021/08/13 03:08:46;;;;;;;11.57;10.37;;;18.60;99.90;;;;;;5053521;28;20170;-74
2021/08/13 03:11:12;;;;;;;12.87;11.27;;;18.60;99.90;;;;;;5054909;28;20488;-72
2021/08/13 03:13:39;;;;;;;12.10;10.90;;;18.50;99.90;;;;;;5053891;28;20420;-72
2021/08/13 03:16:06;;;;;;;12.13;10.40;;;18.50;99.90;;;;;;5053145;28;20511;-72
2021/08/13 03:18:32;;;;;;;11.00;9.90;;;18.60;99.90;;;;;;5053668;28;20401;-72
2021/08/13 03:20:58;;;;;;;13.27;8.77;;;18.60;99.90;;;;;;5055353;28;20475;-73
2021/08/13 03:23:25;;;;;;;12.10;10.90;;;18.60;99.90;;;;;;5053538;28;20427;-72
2021/08/13 03:25:51;;;;;;;13.03;10.40;;;18.70;99.90;;;;;;5053069;28;20405;-73
2021/08/13 03:28:17;;;;;;;15.10;10.90;;;18.70;99.90;;;;;;5054731;28;20409;-71
2021/08/13 03:30:44;;;;;;;11.97;10.40;;;18.70;99.90;;;;;;5036915;28;20514;-71
2021/08/13 03:33:13;;;;;;;12.97;10.80;;;18.70;99.90;;;;;;5056407;28;20431;-72
2021/08/13 03:35:39;;;;;;;12.23;10.80;;;18.70;99.90;;;;;;5057462;28;20450;-71
2021/08/13 03:38:05;;;;;;;12.30;9.93;;;18.70;99.90;;;;;;5057063;28;20412;-71
2021/08/13 03:40:31;;;;;;;12.23;10.93;;;18.70;99.90;;;;;;5057859;28;20498;-73
2021/08/13 03:42:57;;;;;;;12.40;11.10;;;18.70;99.90;;;;;;5056978;28;20284;-72
2021/08/13 03:45:23;;;;;;;11.40;10.23;;;18.70;99.90;;;;;;5057122;28;20974;-72
2021/08/13 03:47:53;;;;;;;13.73;12.17;;;18.60;99.90;;;;;;5056686;28;20659;-72
2021/08/13 03:50:19;;;;;;;13.70;11.90;;;18.50;99.90;;;;;;5057300;28;20297;-73
2021/08/13 03:52:44;;;;;;;13.10;11.13;;;18.30;99.90;;;;;;5039434;28;20448;-72
2021/08/13 03:55:12;;;;;;;12.00;10.90;;;18.30;99.90;;;;;;5056530;28;20707;-72
2021/08/13 03:57:38;;;;;;;12.00;10.80;;;18.30;99.90;;;;;;5057298;28;20537;-72
2021/08/13 04:00:05;;;;;;;12.37;11.00;;;18.30;99.90;;;;;;5058166;28;20484;-73
2021/08/13 04:02:30;;;;;;;12.33;10.40;;;18.30;99.90;;;;;;5056553;28;20198;-73
2021/08/13 04:04:56;;;;;;;13.00;11.70;;;18.30;99.90;;;;;;5056167;28;20443;-73
2021/08/13 04:07:21;;;;;;;13.77;11.07;;;18.30;99.90;;;;;;5057111;28;20179;-73
2021/08/13 04:09:47;;;;;;;12.17;10.90;;;18.30;99.90;;;;;;5056354;28;20559;-72
2021/08/13 04:12:12;;;;;;;12.47;11.20;;;18.30;99.90;;;;;;5057684;28;20237;-72
2021/08/13 04:14:38;;;;;;;14.10;11.53;;;18.30;99.90;;;;;;5038372;28;20216;-72
2021/08/13 04:17:03;;;;;;;12.20;11.00;;;18.20;99.90;;;;;;5056634;28;20170;-72
2021/08/13 04:19:29;;;;;;;12.23;10.93;;;18.20;99.90;;;;;;5056933;28;20209;-72
2021/08/13 04:21:55;;;;;;;15.43;11.97;;;18.20;99.90;;;;;;5057378;28;20183;-72
2021/08/13 04:24:20;;;;;;;13.63;10.87;;;18.20;99.90;;;;;;5056044;28;20626;-72
2021/08/13 04:26:46;;;;;;;14.57;11.80;;;18.20;99.90;;;;;;5056163;28;20170;-72
2021/08/13 04:29:11;;;;;;;15.13;11.40;;;18.20;99.90;;;;;;5056682;28;20182;-72
2021/08/13 04:31:37;;;;;;;14.07;11.67;;;18.20;99.90;;;;;;5056121;28;20201;-72
2021/08/13 04:34:02;;;;;;;14.00;11.40;;;18.20;99.90;;;;;;5057128;28;20567;-72
2021/08/13 04:36:28;;;;;;;13.53;12.13;;;18.20;99.90;;;;;;5055872;28;20167;-72
2021/08/13 04:38:54;;;;;;;13.77;12.10;;;18.20;99.90;;;;;;5056275;28;20600;-73
2021/08/13 04:41:19;;;;;;;15.57;14.07;;;18.30;99.90;;;;;;5055073;28;20412;-72
2021/08/13 04:43:45;;;;;;;13.47;12.00;;;18.30;99.90;;;;;;5056671;28;20507;-71
2021/08/13 04:46:10;;;;;;;12.67;11.30;;;18.30;99.90;;;;;;5056151;28;20174;-71
2021/08/13 04:48:36;;;;;;;12.80;11.40;;;18.40;99.90;;;;;;5055781;28;20174;-72
2021/08/13 04:51:01;;;;;;;11.57;10.57;;;18.40;99.90;;;;;;5057343;28;20221;-72
2021/08/13 04:53:27;;;;;;;12.00;10.70;;;18.40;99.90;;;;;;5056536;28;20200;-72
2021/08/13 04:55:53;;;;;;;13.40;11.00;;;18.50;99.90;;;;;;5055511;28;20219;-72
2021/08/13 04:58:18;;;;;;;12.43;11.13;;;18.50;99.90;;;;;;5055559;28;20162;-72
2021/08/13 05:00:47;;;;;;;12.17;10.90;;;18.50;99.90;;;;;;5057123;28;20535;-73
2021/08/13 05:03:12;;;;;;;12.60;11.40;;;18.50;99.90;;;;;;5057368;28;20202;-72
2021/08/13 05:05:38;;;;;;;13.13;11.27;;;18.60;99.90;;;;;;5037944;28;20780;-72
2021/08/13 05:08:04;;;;;;;19.33;11.70;;;18.50;99.90;;;;;;5055768;28;20171;-72
2021/08/13 05:10:30;;;;;;;13.23;11.93;;;18.50;99.90;;;;;;5055517;28;20239;-72
2021/08/13 05:12:55;;;;;;;13.70;11.27;;;18.60;99.90;;;;;;5062577;28;20444;-72
2021/08/13 05:15:21;;;;;;;13.50;11.40;;;18.50;99.90;;;;;;5075409;28;20165;-72
2021/08/13 05:17:47;;;;;;;13.83;12.37;;;18.40;99.90;;;;;;5075258;28;20673;-72
2021/08/13 05:20:12;;;;;;;15.90;12.17;;;18.40;99.90;;;;;;5075488;28;20246;-72
2021/08/13 05:22:38;;;;;;;13.10;11.80;;;18.40;99.90;;;;;;5074921;28;20213;-73
2021/08/13 05:25:06;;;;;;;15.00;12.10;;;18.40;99.90;;;;;;5070402;28;20261;-72
2021/08/13 05:27:32;;;;;;;15.13;11.73;;;18.50;99.90;;;;;;5054974;28;20588;-72
2021/08/13 05:29:58;;;;;;;14.27;10.50;;;18.60;99.90;;;;;;5038172;28;20461;-73
2021/08/13 05:32:24;;;;;;;15.77;12.03;;;18.60;99.90;;;;;;5033905;28;20163;-72
2021/08/13 05:34:50;;;;;;;14.23;12.73;;;18.70;99.90;;;;;;5034410;28;20163;-71
2021/08/13 05:37:15;;;;;;;16.00;14.30;;;18.70;99.90;;;;;;5053235;28;20503;-72
2021/08/13 05:39:41;;;;;;;15.20;13.60;;;18.80;99.90;;;;;;5054956;28;20206;-71
2021/08/13 05:42:07;;;;;;;14.47;13.17;;;18.80;99.90;;;;;;5054559;28;20904;-71
2021/08/13 05:44:32;;;;;;;15.00;12.67;;;18.90;99.90;;;;;;5036642;28;20559;-71
2021/08/13 05:46:58;;;;;;;14.10;12.70;;;18.90;99.90;;;;;;5056926;28;20227;-72
2021/08/13 05:49:23;;;;;;;14.80;13.30;;;18.90;99.90;;;;;;5055401;28;20190;-72
2021/08/13 05:51:49;;;;;;;15.70;12.30;;;19.00;99.90;;;;;;5054633;28;20166;-73
2021/08/13 05:54:14;;;;;;;15.37;13.10;;;19.10;99.90;;;;;;5053860;28;20199;-72
2021/08/13 05:56:40;;;;;;;12.73;11.50;;;19.10;99.90;;;;;;5055773;28;20308;-72
2021/08/13 05:59:05;;;;;;;15.30;12.00;;;19.10;99.90;;;;;;5056017;28;20166;-72
2021/08/13 06:01:31;;;;;;;14.40;13.00;;;19.20;99.90;;;;;;5037562;28;20550;-72
2021/08/13 06:03:57;;;;;;;15.87;12.10;;;19.20;99.90;;;;;;5054786;28;20206;-73
2021/08/13 06:06:22;;;;;;;13.50;12.20;;;19.30;99.90;;;;;;5053726;28;20471;-72
2021/08/13 06:08:48;;;;;;;13.13;11.73;;;19.30;99.90;;;;;;5055830;28;20180;-73
2021/08/13 06:11:14;;;;;;;13.18;11.88;;;19.40;99.90;;;;;;5053462;28;20459;-72
2021/08/13 06:13:50;;;;;;;12.83;11.53;;;19.50;99.90;;;;;;5055546;28;20186;-72
2021/08/13 06:16:19;;;;;;;17.10;12.40;;;19.60;99.90;;;;;;5036010;28;20202;-72
2021/08/13 06:18:45;;;;;;;14.37;12.30;;;19.70;99.90;;;;;;5037828;28;20471;-71
2021/08/13 06:21:10;;;;;;;13.63;12.23;;;19.80;99.90;;;;;;5053018;28;20424;-72
2021/08/13 06:23:36;;;;;;;14.23;12.77;;;19.90;99.90;;;;;;5054309;28;20425;-73
2021/08/13 06:26:02;;;;;;;12.10;10.90;;;20.10;99.90;;;;;;5053954;28;20497;-72
2021/08/13 06:28:27;;;;;;;13.23;11.93;;;20.10;99.90;;;;;;5052026;28;20208;-74
2021/08/13 06:30:53;;;;;;;13.00;11.70;;;20.20;99.90;;;;;;5045206;28;20232;-72
2021/08/13 06:33:18;;;;;;;13.83;12.27;;;20.30;99.90;;;;;;5055894;28;20529;-72
2021/08/13 06:35:44;;;;;;;12.13;10.90;;;20.40;99.90;;;;;;5053594;28;20169;-73
2021/08/13 06:38:10;;;;;;;16.37;14.03;;;20.50;99.90;;;;;;5053480;28;20224;-71
2021/08/13 06:40:35;;;;;;;14.53;12.17;;;20.60;99.90;;;;;;5036055;28;20191;-71
2021/08/13 06:43:01;;;;;;;14.60;13.20;;;20.70;99.90;;;;;;5052993;28;20885;-72
2021/08/13 06:45:27;;;;;;;13.63;12.33;;;20.80;99.90;;;;;;5054040;28;20205;-72
2021/08/13 06:47:56;;;;;;;12.03;10.80;;;20.90;99.90;;;;;;5053883;28;20185;-71
2021/08/13 06:50:22;;;;;;;14.03;11.70;;;21.00;99.90;;;;;;5051339;28;20464;-72
2021/08/13 06:52:47;;;;;;;13.73;12.33;;;21.10;99.90;;;;;;5016300;28;20454;-72
2021/08/13 06:55:13;;;;;;;13.07;11.80;;;21.20;99.90;;;;;;5039435;28;20185;-73
2021/08/13 06:57:40;;;;;;;15.07;12.73;;;21.40;99.90;;;;;;5049906;28;20170;-74
2021/08/13 07:00:08;;;;;;;13.67;12.37;;;21.50;99.90;;;;;;5049121;28;20182;-73
2021/08/13 07:02:33;;;;;;;14.60;11.80;;;21.50;99.90;;;;;;5048836;28;20432;-72
2021/08/13 07:04:59;;;;;;;14.57;12.97;;;21.50;99.90;;;;;;5048127;28;20474;-73
2021/08/13 07:07:25;;;;;;;13.93;12.53;;;21.60;99.90;;;;;;5050970;28;20443;-72
2021/08/13 07:09:50;;;;;;;14.60;12.50;;;21.70;99.90;;;;;;5068621;28;20200;-72
2021/08/13 07:12:16;;;;;;;12.50;11.30;;;21.80;99.90;;;;;;5074474;28;20181;-71
2021/08/13 07:14:42;;;;;;;13.13;11.73;;;21.90;99.90;;;;;;5073600;28;20185;-72
2021/08/13 07:17:08;;;;;;;13.13;11.90;;;22.00;99.90;;;;;;5075668;28;20423;-71
2021/08/13 07:19:34;;;;;;;14.37;12.87;;;22.00;99.90;;;;;;5069346;28;20173;-72
2021/08/13 07:22:00;;;;;;;16.73;11.53;;;22.10;99.90;;;;;;5074180;28;20824;-71
2021/08/13 07:24:25;;;;;;;12.00;10.80;;;22.10;99.90;;;;;;5072148;28;20624;-72
2021/08/13 07:26:51;;;;;;;13.07;11.67;;;22.20;99.90;;;;;;5072866;28;20166;-73
2021/08/13 07:29:16;;;;;;;13.83;11.10;;;22.20;99.90;;;;;;5072036;28;20638;-73
2021/08/13 07:31:42;;;;;;;13.20;11.20;;;22.20;99.90;;;;;;5071396;28;20201;-73
2021/08/13 07:34:07;;;;;;;11.50;10.30;;;22.30;99.90;;;;;;5072679;28;20603;-73
2021/08/13 07:36:33;;;;;;;11.20;10.10;;;22.30;99.90;;;;;;5072566;28;20171;-73
2021/08/13 07:38:58;;;;;;;11.37;10.23;;;22.30;99.90;;;;;;5071950;28;20193;-74
2021/08/13 07:41:24;;;;;;;11.40;10.00;;;22.40;99.90;;;;;;5070933;28;20539;-74
2021/08/13 07:43:50;;;;;;;12.00;10.70;;;22.30;99.90;;;;;;5037843;28;20285;-74
2021/08/13 07:46:15;;;;;;;14.07;11.87;;;22.30;99.90;;;;;;5054357;28;20280;-73
2021/08/13 07:48:41;;;;;;;13.53;12.17;;;22.40;99.90;;;;;;5072705;28;20196;-73
2021/08/13 07:51:07;;;;;;;13.47;12.03;;;22.40;99.90;;;;;;5072636;28;20213;-71
2021/08/13 07:53:33;;;;;;;12.23;11.03;;;22.50;99.90;;;;;;5073697;28;20185;-73
2021/08/13 07:55:58;;;;;;;17.57;12.10;;;22.50;99.90;;;;;;5073199;28;20403;-72
2021/08/13 07:58:24;;;;;;;14.23;10.50;;;22.60;99.90;;;;;;5074982;28;20603;-72
2021/08/13 08:00:50;;;;;;;16.90;12.60;;;22.60;99.90;;;;;;5073300;28;20213;-73
2021/08/13 08:03:15;;;;;;;13.80;12.30;;;22.70;99.90;;;;;;5052670;28;20198;-72
2021/08/13 08:05:41;;;;;;;13.60;12.20;;;22.70;99.90;;;;;;5051706;28;20400;-72
2021/08/13 08:08:06;;;;;;;16.03;11.67;;;22.70;99.90;;;;;;5052094;28;20170;-73
2021/08/13 08:10:32;;;;;;;12.37;11.03;;;22.80;99.90;;;;;;5051903;28;20974;-74
2021/08/13 08:12:58;;;;;;;15.53;13.17;;;22.90;99.90;;;;;;5053120;28;20202;-73
2021/08/13 08:15:24;;;;;;;16.67;13.80;;;22.90;99.90;;;;;;5051733;28;20703;-73
2021/08/13 08:17:49;;;;;;;16.30;14.70;;;22.80;99.90;;;;;;5051097;28;20186;-72
2021/08/13 08:20:15;;;;;;;16.07;14.37;;;22.70;99.90;;;;;;5052274;28;20178;-72
2021/08/13 08:22:40;;;;;;;15.70;13.47;;;22.70;99.90;;;;;;5052377;28;20263;-73
2021/08/13 08:25:07;;;;;;;25.53;15.70;;;22.60;99.90;;;;;;5051990;28;20174;-73
2021/08/13 08:27:33;;;;;;;18.03;15.30;;;22.50;99.90;;;;;;5034318;28;20396;-72
2021/08/13 08:29:58;;;;;;;17.00;15.13;;;22.40;99.90;;;;;;5052235;28;20551;-72
2021/08/13 08:32:24;;;;;;;18.00;15.80;;;22.50;99.90;;;;;;5051877;28;20428;-73
2021/08/13 08:34:50;;;;;;;18.77;16.52;;;22.40;99.90;;;;;;5051407;28;20407;-72
2021/08/13 08:37:17;;;;;;;17.93;15.97;;;22.40;99.90;;;;;;5054304;28;20587;-73
2021/08/13 08:39:45;;;;;;;15.67;13.97;;;22.40;99.90;;;;;;5051080;28;20200;-73
2021/08/13 08:42:28;;;;;;;18.83;16.07;;;22.50;99.90;;;;;;5033149;28;20713;-71
2021/08/13 08:44:54;;;;;;;20.07;17.00;;;22.60;99.90;;;;;;5057320;28;20409;-72
2021/08/13 08:47:21;;;;;;;18.60;16.70;;;22.70;99.90;;;;;;5055866;28;20415;-72
2021/08/13 08:49:50;;;;;;;19.47;16.80;;;22.80;99.90;;;;;;5055998;28;20566;-71
2021/08/13 08:52:17;;;;;;;24.90;18.60;;;22.90;99.90;;;;;;5056952;28;20496;-71
2021/08/13 08:54:44;;;;;;;19.27;16.50;;;22.80;99.90;;;;;;5057282;28;20439;-72
2021/08/13 08:57:11;;;;;;;18.00;15.60;;;22.90;99.90;;;;;;5055768;28;20401;-72
2021/08/13 08:59:37;;;;;;;19.90;17.63;;;23.00;99.90;;;;;;5055634;28;20401;-71
2021/08/13 09:02:03;;;;;;;20.00;16.48;;;23.10;99.90;;;;;;5057886;28;20478;-71
2021/08/13 09:04:28;;;;;;;21.40;17.33;;;23.30;99.90;;;;;;5075359;28;20246;-71
2021/08/13 09:06:54;;;;;;;19.53;16.30;;;23.40;99.90;;;;;;5075414;28;20597;-71
2021/08/13 09:09:20;;;;;;;22.70;18.10;;;23.60;99.90;;;;;;5075408;28;20176;-71
2021/08/13 09:11:46;;;;;;;20.70;17.50;;;23.70;99.90;;;;;;5075370;28;20197;-70
2021/08/13 09:14:14;;;;;;;22.33;17.40;;;23.60;99.90;;;;;;5073204;28;20842;-72
2021/08/13 09:16:58;;;;;;;18.47;16.57;;;23.60;99.90;;;;;;5076387;28;20415;-71
2021/08/13 09:19:46;;;;;;;21.60;17.37;;;23.60;99.90;;;;;;5076035;28;20419;-72
2021/08/13 09:22:16;;;;;;;18.93;15.70;;;23.70;99.90;;;;;;5075128;28;20388;-72
2021/08/13 09:24:44;;;;;;;22.00;17.70;;;23.70;99.90;;;;;;5073044;28;20415;-72
2021/08/13 09:27:27;;;;;;;22.90;19.00;;;23.80;99.90;;;;;;5035162;28;20810;-71
2021/08/13 09:30:13;;;;;;;24.50;19.23;;;23.70;99.90;;;;;;5033872;28;20799;-72
2021/08/13 09:32:42;;;;;;;20.70;18.60;;;23.60;99.90;;;;;;5035100;28;20484;-72
2021/08/13 09:35:08;;;;;;;25.70;19.33;;;23.60;99.90;;;;;;5035747;28;20409;-73
2021/08/13 09:37:36;;;;;;;22.80;19.73;;;23.60;99.90;;;;;;5038712;28;20808;-72
2021/08/13 09:40:02;;;;;;;28.07;20.20;;;23.60;99.90;;;;;;5055794;28;20485;-72
2021/08/13 09:42:35;;;;;;;26.17;21.60;;;23.60;99.90;;;;;;5054657;28;20417;-72
2021/08/13 09:45:08;;;;;;;26.57;21.20;;;23.50;99.90;;;;;;5055277;28;20166;-72
2021/08/13 09:47:44;;;;;;;26.73;21.00;;;23.50;99.90;;;;;;5056497;28;20423;-72
2021/08/13 09:50:11;;;;;;;31.03;24.07;;;23.50;99.90;;;;;;5054765;28;20463;-72
2021/08/13 09:52:37;;;;;;;26.93;23.77;;;23.50;99.90;;;;;;5054477;28;20441;-70
2021/08/13 09:55:16;;;;;;;27.00;22.90;;;23.40;99.90;;;;;;5054988;28;20405;-72
2021/08/13 09:57:46;;;;;;;29.40;23.17;;;23.40;99.90;;;;;;5056487;28;20211;-71
2021/08/13 10:00:13;;;;;;;36.63;24.60;;;23.40;99.90;;;;;;5055592;28;20405;-71
2021/08/13 10:02:39;;;;;;;26.17;20.93;;;23.40;99.90;;;;;;5054339;28;20437;-72
2021/08/13 10:05:18;;;;;;;34.38;26.92;;;23.40;99.90;;;;;;5054843;28;20416;-72
2021/08/13 10:07:47;;;;;;;34.97;26.30;;;23.50;99.90;;;;;;5073680;28;20244;-71
2021/08/13 10:10:14;;;;;;;31.60;24.03;;;23.40;99.90;;;;;;5071597;28;20948;-71
2021/08/13 10:12:46;;;;;;;32.30;26.70;;;23.40;99.90;;;;;;5045941;28;20436;-70
2021/08/13 10:15:33;;;;;;;31.70;26.20;;;23.50;99.90;;;;;;5051702;28;20495;-71
2021/08/13 10:18:00;;;;;;;27.20;22.23;;;23.60;99.90;;;;;;5032124;28;21189;-71
2021/08/13 10:20:29;;;;;;;32.17;24.57;;;23.80;99.90;;;;;;5052588;28;20447;-71
2021/08/13 10:22:55;;;;;;;27.20;23.07;;;23.80;99.90;;;;;;5050701;28;20432;-71
2021/08/13 10:25:22;;;;;;;25.37;21.23;;;23.80;99.90;;;;;;5051188;28;20420;-70
2021/08/13 10:27:48;;;;;;;25.08;22.33;;;23.90;99.90;;;;;;5062749;28;20421;-71
2021/08/13 10:30:17;;;;;;;25.20;22.50;;;24.10;99.90;;;;;;5050639;28;20202;-71
2021/08/13 10:32:47;;;;;;;24.17;21.42;;;24.20;99.90;;;;;;5049537;28;20415;-71
2021/08/13 10:35:13;;;;;;;23.10;20.33;;;24.30;99.90;;;;;;5050127;28;20647;-71
2021/08/13 10:37:39;;;;;;;22.73;18.83;;;24.40;99.90;;;;;;5037662;28;20460;-71
2021/08/13 10:40:07;;;;;;;21.17;19.07;;;24.50;99.90;;;;;;5051281;28;20428;-71
2021/08/13 10:42:36;;;;;;;22.40;20.00;;;24.60;99.90;;;;;;5049994;28;20486;-71
2021/08/13 10:45:06;;;;;;;25.37;19.10;;;24.50;99.90;;;;;;5049984;28;20878;-71
2021/08/13 10:47:37;;;;;;;21.97;17.90;;;24.50;99.90;;;;;;5050536;28;20455;-71
2021/08/13 10:50:05;;;;;;;22.87;18.73;;;24.60;99.90;;;;;;5051387;28;20464;-71
2021/08/13 10:52:34;;;;;;;23.20;19.40;;;24.40;99.90;;;;;;5051037;28;20498;-71
2021/08/13 10:55:00;;;;;;;21.85;18.60;;;24.20;99.90;;;;;;5049016;28;20411;-72
2021/08/13 10:57:47;;;;;;;18.47;15.83;;;24.10;99.90;;;;;;5031557;28;20182;-71
2021/08/13 11:00:13;;;;;;;21.15;18.40;;;24.20;99.90;;;;;;5060108;28;20940;-72
2021/08/13 11:02:39;;;;;;;16.83;15.03;;;24.30;99.90;;;;;;5050711;28;20233;-71
2021/08/13 11:05:05;;;;;;;15.30;13.43;;;24.30;99.90;;;;;;5050128;28;20513;-71
2021/08/13 11:07:59;;;;;;;18.90;15.80;;;24.50;99.90;;;;;;5050002;28;20190;-70
2021/08/13 11:10:37;;;;;;;20.27;15.90;;;24.50;99.90;;;;;;5027043;28;20229;-71
2021/08/13 11:13:19;;;;;;;14.90;12.33;;;24.50;99.90;;;;;;5049965;28;20860;-71
2021/08/13 11:15:46;;;;;;;16.03;14.37;;;24.50;99.90;;;;;;5051674;28;20488;-70
2021/08/13 11:18:32;;;;;;;17.60;14.43;;;24.40;99.90;;;;;;5052484;28;20807;-71
2021/08/13 11:20:58;;;;;;;16.80;15.00;;;24.30;99.90;;;;;;5052876;28;20508;-71
2021/08/13 11:23:25;;;;;;;16.43;14.43;;;24.40;99.90;;;;;;5050479;28;20259;-71
2021/08/13 11:25:55;;;;;;;17.15;15.18;;;24.50;99.90;;;;;;5031656;28;20447;-70
2021/08/13 11:28:26;;;;;;;16.97;15.23;;;24.60;99.90;;;;;;5049434;28;20241;-70
2021/08/13 11:30:55;;;;;;;18.60;16.07;;;24.60;99.90;;;;;;5056322;28;20471;-71
2021/08/13 11:33:27;;;;;;;17.07;13.67;;;24.50;99.90;;;;;;5055644;28;20440;-72
2021/08/13 11:35:54;;;;;;;12.87;10.70;;;24.70;99.90;;;;;;5050412;28;20452;-71
2021/08/13 11:38:42;;;;;;;12.13;10.83;;;24.60;99.90;;;;;;5050450;28;20508;-71
2021/08/13 11:41:23;;;;;;;13.13;11.80;;;24.70;99.90;;;;;;5053125;28;20502;-70
2021/08/13 11:43:50;;;;;;;10.97;9.87;;;24.70;99.90;;;;;;5052291;28;20442;-71
2021/08/13 11:46:32;;;;;;;13.43;12.13;;;24.80;99.90;;;;;;5050212;28;20413;-73
2021/08/13 11:48:59;;;;;;;13.57;12.27;;;24.90;99.90;;;;;;5053361;28;20422;-70
2021/08/13 11:51:26;;;;;;;12.30;11.07;;;25.00;99.90;;;;;;5037904;28;20456;-71
2021/08/13 11:53:53;;;;;;;12.10;10.20;;;24.90;99.90;;;;;;5053797;28;20452;-71
2021/08/13 11:56:28;;;;;;;10.50;9.40;;;24.90;99.90;;;;;;5053902;28;20409;-71
2021/08/13 11:59:06;;;;;;;10.60;9.50;;;25.00;99.90;;;;;;5053448;28;20498;-71
2021/08/13 12:01:52;;;;;;;11.50;10.40;;;24.90;99.90;;;;;;5067854;28;20427;-70
2021/08/13 12:04:24;;;;;;;10.20;9.20;;;25.00;99.90;;;;;;5049251;28;21037;-71
2021/08/13 12:07:06;;;;;;;9.00;8.10;;;25.10;99.90;;;;;;5052707;28;20462;-71
2021/08/13 12:09:34;;;;;;;9.47;8.50;;;25.20;99.90;;;;;;5053407;28;20495;-71
2021/08/13 12:12:01;;;;;;;9.50;8.60;;;25.30;99.90;;;;;;5063131;28;20453;-71
2021/08/13 12:14:26;;;;;;;8.73;7.93;;;25.30;99.90;;;;;;5053078;28;20421;-71
2021/08/13 12:16:57;;;;;;;9.60;7.23;;;25.40;99.90;;;;;;5053257;28;20404;-71
2021/08/13 12:19:23;;;;;;;8.23;7.30;;;25.50;99.80;;;;;;5052773;28;20407;-71
2021/08/13 12:21:59;;;;;;;7.83;7.07;;;25.40;99.40;;;;;;5054274;28;20547;-71
2021/08/13 12:24:37;;;;;;;8.37;7.57;;;25.60;99.70;;;;;;5052129;28;20471;-71
2021/08/13 12:27:06;;;;;;;8.97;7.10;;;25.70;99.30;;;;;;5052578;28;20446;-71
2021/08/13 12:29:35;;;;;;;13.10;7.90;;;25.80;99.20;;;;;;5051690;28;20491;-72
2021/08/13 12:32:07;;;;;;;7.47;6.50;;;25.90;99.40;;;;;;5053634;28;20644;-74